createdAt,value
2022-08-18T00:00:47.564Z,4.30
2022-08-18T00:01:47.657Z,4.40
2022-08-18T00:03:00.459Z,4.70
2022-08-18T00:03:56.143Z,4.80
2022-08-18T00:04:49.666Z,4.40
2022-08-18T00:05:47.517Z,4.60
2022-08-18T00:06:47.715Z,4.20
2022-08-18T00:07:47.509Z,4.10
2022-08-18T00:08:47.485Z,4.20
2022-08-18T00:09:47.481Z,4.40
2022-08-18T00:10:47.473Z,4.00
2022-08-18T00:11:47.510Z,4.30
2022-08-18T00:12:47.523Z,4.20
2022-08-18T00:13:47.448Z,4.30
2022-08-18T00:14:47.441Z,4.50
2022-08-18T00:15:48.893Z,4.40
2022-08-18T00:16:47.430Z,4.80
2022-08-18T00:17:47.411Z,4.40
2022-08-18T00:18:47.406Z,4.80
2022-08-18T00:19:48.380Z,4.40
2022-08-18T00:20:48.437Z,4.70
2022-08-18T00:21:47.386Z,4.70
2022-08-18T00:22:47.422Z,4.30
2022-08-18T00:23:47.371Z,4.80
2022-08-18T00:24:48.581Z,4.50
2022-08-18T00:25:47.376Z,4.30
2022-08-18T00:26:47.344Z,5.00
2022-08-18T00:27:47.333Z,4.80
2022-08-18T00:28:47.327Z,5.40
2022-08-18T00:29:47.318Z,4.60
2022-08-18T00:30:47.341Z,4.40
2022-08-18T00:31:48.298Z,5.20
2022-08-18T00:32:47.416Z,5.00
2022-08-18T00:33:47.286Z,4.80
2022-08-18T00:34:47.277Z,4.80
2022-08-18T00:35:47.295Z,5.10
2022-08-18T00:36:47.261Z,4.80
2022-08-18T00:37:47.340Z,4.90
2022-08-18T00:38:47.241Z,4.90
2022-08-18T00:39:47.816Z,5.00
2022-08-18T00:40:47.256Z,4.90
2022-08-18T00:41:47.207Z,5.00
2022-08-18T00:42:47.275Z,5.60
2022-08-18T00:43:47.198Z,4.80
2022-08-18T00:44:47.188Z,5.30
2022-08-18T00:45:47.211Z,5.10
2022-08-18T00:46:47.169Z,5.00
2022-08-18T00:47:47.182Z,4.90
2022-08-18T00:48:48.894Z,4.90
2022-08-18T00:49:47.162Z,4.70
2022-08-18T00:50:47.178Z,4.90
2022-08-18T00:51:47.147Z,4.80
2022-08-18T00:52:47.126Z,5.40
2022-08-18T00:53:47.127Z,4.90
2022-08-18T00:54:47.108Z,4.90
2022-08-18T00:55:54.085Z,4.50
2022-08-18T00:56:48.089Z,4.90
2022-08-18T00:57:47.108Z,5.40
2022-08-18T00:58:47.082Z,5.10
2022-08-18T00:59:47.072Z,4.90
2022-08-18T01:00:47.111Z,5.20
2022-08-18T01:01:47.085Z,4.90
2022-08-18T01:02:47.050Z,5.10
2022-08-18T01:03:47.039Z,5.40
2022-08-18T01:04:47.029Z,5.60
2022-08-18T01:05:47.033Z,4.90
2022-08-18T01:06:47.045Z,5.40
2022-08-18T01:07:47.140Z,5.00
2022-08-18T01:08:47.022Z,5.70
2022-08-18T01:09:46.990Z,5.40
2022-08-18T01:10:46.988Z,5.00
2022-08-18T01:11:47.006Z,5.10
2022-08-18T01:12:47.253Z,5.10
2022-08-18T01:13:47.960Z,5.50
2022-08-18T01:14:46.961Z,5.70
2022-08-18T01:15:46.939Z,5.60
2022-08-18T01:16:56.695Z,5.20
2022-08-18T01:17:47.988Z,5.50
2022-08-18T01:18:46.911Z,5.50
2022-08-18T01:19:46.898Z,5.40
2022-08-18T01:20:46.904Z,4.90
2022-08-18T01:21:46.921Z,5.10
2022-08-18T01:22:46.970Z,4.80
2022-08-18T01:23:46.877Z,4.60
2022-08-18T01:24:46.868Z,4.20
2022-08-18T01:25:46.856Z,4.70
2022-08-18T01:26:46.877Z,4.50
2022-08-18T01:27:46.871Z,4.60
2022-08-18T01:28:46.846Z,4.80
2022-08-18T01:29:46.814Z,4.40
2022-08-18T01:30:47.804Z,4.40
2022-08-18T01:31:54.762Z,4.10
2022-08-18T01:32:47.789Z,4.50
2022-08-18T01:33:46.785Z,4.90
2022-08-18T01:34:46.771Z,4.70
2022-08-18T01:35:46.772Z,5.00
2022-08-18T01:36:46.785Z,4.90
2022-08-18T01:37:46.754Z,4.50
2022-08-18T01:38:46.743Z,4.40
2022-08-18T01:41:17.213Z,4.50
2022-08-18T01:41:25.256Z,4.50
2022-08-18T01:41:47.774Z,4.60
2022-08-18T01:42:46.704Z,4.40
2022-08-18T01:43:46.694Z,4.80
2022-08-18T01:44:46.695Z,4.90
2022-08-18T01:45:46.693Z,5.40
2022-08-18T01:46:46.732Z,5.60
2022-08-18T01:47:47.739Z,5.10
2022-08-18T01:48:47.673Z,5.60
2022-08-18T01:49:46.649Z,5.50
2022-08-18T01:50:46.633Z,5.40
2022-08-18T01:51:47.657Z,5.60
2022-08-18T01:52:46.628Z,5.20
2022-08-18T01:53:46.643Z,5.60
2022-08-18T01:54:46.602Z,5.10
2022-08-18T01:55:46.601Z,5.80
2022-08-18T01:56:46.621Z,5.50
2022-08-18T01:57:46.674Z,6.00
2022-08-18T01:58:46.566Z,5.10
2022-08-18T01:59:46.565Z,5.30
2022-08-18T02:00:46.558Z,5.60
2022-08-18T02:01:50.415Z,5.90
2022-08-18T02:02:47.542Z,5.60
2022-08-18T02:03:47.524Z,5.50
2022-08-18T02:04:46.513Z,5.20
2022-08-18T02:05:46.509Z,5.50
2022-08-18T02:06:46.541Z,5.50
2022-08-18T02:07:46.547Z,5.70
2022-08-18T02:08:46.565Z,6.00
2022-08-18T02:09:47.473Z,5.30
2022-08-18T02:10:46.465Z,5.20
2022-08-18T02:11:46.489Z,5.40
2022-08-18T02:12:46.455Z,5.90
2022-08-18T02:13:46.445Z,5.30
2022-08-18T02:14:46.444Z,5.40
2022-08-18T02:15:46.426Z,5.30
2022-08-18T02:16:46.414Z,5.70
2022-08-18T02:17:46.439Z,5.10
2022-08-18T02:18:48.473Z,5.50
2022-08-18T02:19:46.397Z,5.30
2022-08-18T02:20:46.387Z,5.70
2022-08-18T02:21:46.390Z,5.70
2022-08-18T02:22:46.396Z,5.20
2022-08-18T02:23:52.796Z,5.80
2022-08-18T02:24:47.344Z,5.30
2022-08-18T02:25:46.344Z,5.20
2022-08-18T02:26:46.329Z,5.80
2022-08-18T02:27:46.351Z,5.50
2022-08-18T02:28:46.316Z,5.20
2022-08-18T02:29:46.324Z,5.40
2022-08-18T02:30:46.338Z,5.50
2022-08-18T02:31:46.289Z,5.10
2022-08-18T02:32:46.312Z,5.50
2022-08-18T02:33:51.867Z,5.70
2022-08-18T02:34:47.264Z,5.00
2022-08-18T02:35:46.260Z,5.70
2022-08-18T02:36:46.250Z,5.70
2022-08-18T02:37:46.318Z,5.30
2022-08-18T02:38:48.705Z,4.70
2022-08-18T02:39:47.258Z,5.20
2022-08-18T02:40:46.220Z,5.40
2022-08-18T02:41:46.203Z,5.50
2022-08-18T02:42:46.224Z,5.50
2022-08-18T02:43:46.197Z,5.40
2022-08-18T02:44:46.181Z,5.50
2022-08-18T02:45:46.172Z,5.20
2022-08-18T02:46:46.165Z,5.00
2022-08-18T02:47:46.245Z,5.80
2022-08-18T02:48:46.152Z,4.70
2022-08-18T02:49:46.162Z,5.00
2022-08-18T02:50:46.144Z,6.10
2022-08-18T02:51:46.121Z,7.00
2022-08-18T02:52:46.136Z,7.00
2022-08-18T02:53:46.120Z,6.60
2022-08-18T02:54:46.099Z,6.00
2022-08-18T02:55:46.085Z,6.40
2022-08-18T02:56:46.087Z,6.60
2022-08-18T02:57:46.111Z,6.80
2022-08-18T02:58:46.063Z,6.10
2022-08-18T02:59:47.445Z,6.20
2022-08-18T03:00:46.054Z,6.40
2022-08-18T03:01:46.186Z,6.10
2022-08-18T03:02:46.062Z,5.70
2022-08-18T03:03:46.024Z,5.50
2022-08-18T03:04:46.015Z,6.70
2022-08-18T03:05:46.002Z,6.20
2022-08-18T03:06:45.999Z,5.80
2022-08-18T03:07:46.024Z,5.90
2022-08-18T03:08:45.981Z,6.60
2022-08-18T03:09:45.978Z,6.20
2022-08-18T03:10:45.976Z,6.30
2022-08-18T03:11:45.957Z,5.70
2022-08-18T03:12:45.986Z,6.10
2022-08-18T03:13:45.932Z,5.70
2022-08-18T03:14:46.935Z,6.00
2022-08-18T03:15:45.936Z,6.30
2022-08-18T03:16:53.651Z,6.10
2022-08-18T03:17:46.940Z,5.90
2022-08-18T03:18:45.899Z,5.70
2022-08-18T03:19:46.770Z,5.70
2022-08-18T03:20:45.884Z,6.20
2022-08-18T03:21:45.877Z,6.30
2022-08-18T03:22:45.871Z,6.10
2022-08-18T03:23:45.893Z,6.80
2022-08-18T03:24:46.842Z,6.00
2022-08-18T03:25:45.847Z,6.00
2022-08-18T03:26:45.838Z,5.80
2022-08-18T03:27:45.829Z,6.00
2022-08-18T03:28:45.850Z,6.40
2022-08-18T03:29:45.813Z,6.90
2022-08-18T03:30:45.802Z,6.10
2022-08-18T03:31:45.797Z,6.10
2022-08-18T03:32:46.093Z,6.20
2022-08-18T03:33:45.814Z,6.50
2022-08-18T03:34:45.782Z,5.70
2022-08-18T03:35:45.765Z,5.70
2022-08-18T03:36:45.743Z,5.70
2022-08-18T03:37:46.746Z,6.00
2022-08-18T03:38:45.767Z,6.10
2022-08-18T03:39:46.782Z,5.70
2022-08-18T03:40:45.720Z,5.70
2022-08-18T03:41:58.241Z,5.60
2022-08-18T03:42:46.703Z,6.30
2022-08-18T03:43:51.210Z,6.00
2022-08-18T03:44:46.682Z,5.70
2022-08-18T03:45:45.671Z,6.10
2022-08-18T03:46:45.678Z,6.80
2022-08-18T03:47:45.757Z,5.80
2022-08-18T03:48:45.681Z,5.90
2022-08-18T03:49:45.644Z,5.80
2022-08-18T03:50:45.630Z,6.00
2022-08-18T03:51:45.630Z,6.00
2022-08-18T03:52:45.624Z,6.00
2022-08-18T03:53:45.641Z,6.10
2022-08-18T03:54:45.614Z,6.10
2022-08-18T03:55:45.610Z,6.10
2022-08-18T03:56:45.585Z,5.80
2022-08-18T03:57:45.642Z,5.90
2022-08-18T03:58:45.603Z,5.80
2022-08-18T03:59:45.571Z,5.70
2022-08-18T04:00:45.559Z,5.80
2022-08-18T04:01:45.682Z,5.60
2022-08-18T04:02:45.539Z,5.70
2022-08-18T04:03:45.560Z,5.90
2022-08-18T04:04:45.524Z,5.90
2022-08-18T04:05:45.516Z,6.40
2022-08-18T04:06:45.521Z,6.10
2022-08-18T04:07:45.518Z,6.10
2022-08-18T04:08:45.517Z,6.20
2022-08-18T04:09:45.484Z,6.80
2022-08-18T04:10:45.496Z,6.30
2022-08-18T04:11:45.477Z,6.10
2022-08-18T04:12:45.455Z,5.90
2022-08-18T04:13:45.470Z,6.30
2022-08-18T04:14:46.446Z,6.90
2022-08-18T04:15:45.439Z,6.40
2022-08-18T04:16:45.427Z,6.30
2022-08-18T04:18:03.525Z,6.30
2022-08-18T04:18:46.437Z,6.10
2022-08-18T04:19:45.395Z,6.40
2022-08-18T04:20:59.387Z,5.70
2022-08-18T04:21:46.403Z,6.40
2022-08-18T04:22:45.374Z,6.40
2022-08-18T04:23:45.393Z,6.10
2022-08-18T04:24:45.432Z,5.80
2022-08-18T04:25:45.350Z,5.80
2022-08-18T04:26:45.341Z,5.60
2022-08-18T04:27:45.378Z,6.20
2022-08-18T04:28:45.356Z,6.00
2022-08-18T04:29:45.318Z,6.50
2022-08-18T04:30:45.311Z,6.60
2022-08-18T04:31:45.305Z,6.80
2022-08-18T04:32:45.310Z,6.40
2022-08-18T04:33:45.320Z,6.50
2022-08-18T04:34:45.274Z,7.00
2022-08-18T04:35:45.284Z,6.00
2022-08-18T04:36:45.257Z,6.70
2022-08-18T04:37:45.258Z,6.40
2022-08-18T04:38:45.240Z,6.40
2022-08-18T04:39:45.352Z,6.00
2022-08-18T04:40:45.223Z,5.80
2022-08-18T04:41:45.216Z,5.90
2022-08-18T04:42:45.249Z,6.20
2022-08-18T04:43:45.196Z,6.00
2022-08-18T04:44:45.225Z,6.10
2022-08-18T04:45:45.185Z,6.00
2022-08-18T04:46:45.174Z,5.30
2022-08-18T04:47:45.194Z,5.20
2022-08-18T04:48:45.186Z,6.50
2022-08-18T04:49:45.159Z,5.50
2022-08-18T04:50:45.143Z,5.50
2022-08-18T04:52:26.899Z,6.00
2022-08-18T04:52:46.123Z,5.80
2022-08-18T04:53:45.147Z,5.90
2022-08-18T04:54:45.135Z,6.20
2022-08-18T04:55:45.113Z,5.90
2022-08-18T04:56:45.095Z,6.40
2022-08-18T04:57:45.081Z,6.50
2022-08-18T04:58:45.105Z,5.90
2022-08-18T04:59:45.070Z,6.10
2022-08-18T05:00:45.083Z,5.90
2022-08-18T05:01:45.122Z,6.00
2022-08-18T05:02:45.039Z,6.10
2022-08-18T05:03:50.189Z,5.70
2022-08-18T05:04:46.062Z,6.60
2022-08-18T05:05:45.018Z,6.10
2022-08-18T05:06:45.017Z,6.10
2022-08-18T05:07:45.083Z,5.90
2022-08-18T05:08:44.993Z,6.10
2022-08-18T05:09:45.023Z,5.70
2022-08-18T05:10:44.985Z,6.50
2022-08-18T05:11:44.977Z,6.40
2022-08-18T05:12:44.969Z,6.80
2022-08-18T05:13:44.952Z,6.90
2022-08-18T05:14:44.972Z,6.60
2022-08-18T05:16:07.338Z,6.40
2022-08-18T05:16:48.767Z,6.00
2022-08-18T05:17:44.961Z,7.10
2022-08-18T05:18:44.913Z,6.80
2022-08-18T05:19:44.936Z,6.50
2022-08-18T05:20:44.904Z,6.60
2022-08-18T05:21:44.897Z,6.40
2022-08-18T05:22:44.962Z,7.00
2022-08-18T05:23:44.901Z,6.70
2022-08-18T05:24:44.862Z,6.90
2022-08-18T05:25:44.856Z,6.20
2022-08-18T05:26:44.854Z,6.80
2022-08-18T05:27:44.906Z,6.50
2022-08-18T05:28:44.869Z,6.60
2022-08-18T05:29:45.757Z,6.70
2022-08-18T05:30:44.813Z,6.30
2022-08-18T05:31:44.816Z,6.90
2022-08-18T05:32:48.633Z,6.60
2022-08-18T05:33:44.833Z,6.20
2022-08-18T05:34:44.780Z,6.10
2022-08-18T05:35:44.769Z,6.20
2022-08-18T05:36:44.772Z,5.90
2022-08-18T05:37:44.754Z,6.30
2022-08-18T05:38:44.784Z,6.20
2022-08-18T05:39:44.779Z,6.50
2022-08-18T05:40:44.729Z,6.70
2022-08-18T05:41:44.721Z,6.10
2022-08-18T05:42:44.719Z,6.90
2022-08-18T05:43:51.125Z,7.00
2022-08-18T05:44:45.702Z,6.40
2022-08-18T05:45:44.694Z,6.40
2022-08-18T05:46:44.708Z,7.10
2022-08-18T05:47:44.673Z,6.60
2022-08-18T05:48:44.713Z,6.00
2022-08-18T05:49:44.661Z,6.10
2022-08-18T05:50:44.653Z,6.70
2022-08-18T05:51:44.645Z,6.90
2022-08-18T05:52:45.636Z,7.30
2022-08-18T05:53:44.658Z,6.20
2022-08-18T05:54:44.615Z,6.60
2022-08-18T05:55:47.807Z,6.60
2022-08-18T05:56:45.616Z,6.40
2022-08-18T05:57:44.661Z,7.10
2022-08-18T05:58:44.615Z,6.40
2022-08-18T05:59:44.573Z,6.60
2022-08-18T06:00:44.578Z,6.20
2022-08-18T06:01:44.560Z,6.20
2022-08-18T06:02:44.583Z,6.90
2022-08-18T06:03:45.093Z,6.80
2022-08-18T06:04:44.533Z,6.50
2022-08-18T06:05:44.529Z,6.70
2022-08-18T06:06:47.704Z,6.60
2022-08-18T06:07:45.566Z,6.50
2022-08-18T06:08:44.529Z,6.50
2022-08-18T06:09:44.492Z,6.60
2022-08-18T06:10:44.478Z,6.20
2022-08-18T06:11:44.474Z,7.10
2022-08-18T06:12:47.078Z,6.80
2022-08-18T06:13:45.496Z,6.90
2022-08-18T06:14:44.448Z,7.20
2022-08-18T06:15:44.449Z,7.00
2022-08-18T06:16:45.257Z,6.40
2022-08-18T06:17:44.428Z,6.90
2022-08-18T06:18:44.443Z,6.90
2022-08-18T06:19:44.400Z,6.70
2022-08-18T06:20:44.409Z,6.60
2022-08-18T06:21:44.386Z,7.00
2022-08-18T06:22:52.074Z,6.50
2022-08-18T06:23:45.417Z,7.10
2022-08-18T06:24:44.364Z,7.00
2022-08-18T06:25:44.377Z,7.00
2022-08-18T06:26:44.343Z,7.30
2022-08-18T06:27:44.334Z,7.10
2022-08-18T06:28:44.330Z,7.10
2022-08-18T06:29:44.347Z,7.40
2022-08-18T06:30:44.311Z,7.40
2022-08-18T06:31:44.311Z,6.90
2022-08-18T06:32:44.311Z,7.50
2022-08-18T06:33:45.923Z,7.20
2022-08-18T06:34:44.315Z,7.60
2022-08-18T06:35:44.267Z,7.30
2022-08-18T06:36:44.269Z,7.40
2022-08-18T06:37:44.262Z,7.10
2022-08-18T06:38:45.775Z,7.60
2022-08-18T06:39:44.411Z,7.70
2022-08-18T06:40:44.228Z,6.80
2022-08-18T06:41:44.223Z,7.40
2022-08-18T06:42:44.215Z,7.90
2022-08-18T06:43:44.209Z,7.50
2022-08-18T06:44:44.238Z,7.80
2022-08-18T06:45:44.191Z,7.40
2022-08-18T06:46:44.190Z,6.80
2022-08-18T06:47:44.174Z,7.60
2022-08-18T06:48:44.172Z,7.40
2022-08-18T06:49:44.187Z,6.70
2022-08-18T06:50:44.149Z,6.90
2022-08-18T06:51:44.141Z,7.00
2022-08-18T06:52:44.153Z,7.70
2022-08-18T06:53:44.132Z,7.00
2022-08-18T06:54:49.369Z,7.40
2022-08-18T06:55:45.114Z,7.70
2022-08-18T06:56:44.104Z,8.00
2022-08-18T06:57:44.137Z,6.90
2022-08-18T06:58:44.105Z,7.20
2022-08-18T06:59:44.115Z,7.40
2022-08-18T07:00:44.161Z,6.90
2022-08-18T07:01:45.064Z,7.30
2022-08-18T07:02:44.064Z,8.30
2022-08-18T07:03:44.075Z,7.60
2022-08-18T07:04:44.070Z,7.40
2022-08-18T07:05:44.030Z,7.00
2022-08-18T07:06:44.014Z,7.50
2022-08-18T07:07:44.015Z,7.10
2022-08-18T07:08:44.002Z,7.40
2022-08-18T07:09:44.021Z,7.30
2022-08-18T07:10:44.991Z,7.50
2022-08-18T07:11:43.981Z,7.90
2022-08-18T07:12:43.975Z,7.50
2022-08-18T07:13:43.967Z,7.40
2022-08-18T07:14:43.992Z,8.20
2022-08-18T07:15:44.008Z,7.60
2022-08-18T07:16:59.980Z,7.30
2022-08-18T07:17:45.929Z,7.30
2022-08-18T07:18:43.933Z,7.90
2022-08-18T07:19:43.955Z,7.80
2022-08-18T07:20:43.912Z,8.50
2022-08-18T07:21:43.900Z,8.50
2022-08-18T07:22:43.921Z,8.50
2022-08-18T07:23:53.742Z,8.70
2022-08-18T07:24:44.910Z,8.70
2022-08-18T07:25:43.880Z,8.60
2022-08-18T07:26:43.866Z,8.40
2022-08-18T07:27:43.877Z,9.00
2022-08-18T07:28:43.834Z,8.90
2022-08-18T07:29:44.865Z,8.90
2022-08-18T07:31:00.243Z,8.60
2022-08-18T07:31:45.822Z,8.80
2022-08-18T07:32:43.828Z,7.50
2022-08-18T07:33:43.803Z,8.00
2022-08-18T07:34:43.837Z,8.40
2022-08-18T07:35:43.791Z,8.20
2022-08-18T07:36:43.794Z,8.60
2022-08-18T07:37:43.766Z,8.20
2022-08-18T07:38:44.414Z,8.20
2022-08-18T07:39:48.466Z,9.10
2022-08-18T07:40:43.777Z,8.70
2022-08-18T07:41:43.757Z,7.50
2022-08-18T07:43:00.923Z,7.50
2022-08-18T07:43:44.717Z,7.70
2022-08-18T07:44:43.752Z,8.20
2022-08-18T07:45:43.707Z,7.80
2022-08-18T07:46:43.784Z,7.30
2022-08-18T07:47:43.695Z,7.70
2022-08-18T07:48:43.677Z,7.60
2022-08-18T07:50:13.466Z,7.60
2022-08-18T07:50:58.379Z,7.40
2022-08-18T07:51:45.721Z,8.30
2022-08-18T07:52:46.809Z,7.70
2022-08-18T07:53:43.642Z,7.20
2022-08-18T07:54:49.354Z,7.90
2022-08-18T07:55:45.630Z,8.20
2022-08-18T07:56:43.711Z,7.80
2022-08-18T07:57:43.623Z,9.00
2022-08-18T07:58:43.595Z,9.60
2022-08-18T07:59:43.594Z,9.50
2022-08-18T08:01:00.154Z,9.40
2022-08-18T08:01:45.660Z,9.30
2022-08-18T08:02:43.580Z,9.70
2022-08-18T08:03:43.555Z,10.90
2022-08-18T08:04:43.543Z,10.90
2022-08-18T08:05:43.584Z,11.20
2022-08-18T08:07:06.107Z,10.90
2022-08-18T08:07:45.649Z,10.80
2022-08-18T08:08:43.527Z,12.60
2022-08-18T08:09:47.146Z,12.40
2022-08-18T08:10:44.524Z,14.60
2022-08-18T08:11:44.426Z,17.50
2022-08-18T08:12:43.480Z,16.80
2022-08-18T08:13:55.207Z,15.00
2022-08-18T08:14:45.468Z,16.00
2022-08-18T08:15:43.498Z,16.00
2022-08-18T08:16:43.472Z,15.00
2022-08-18T08:17:43.450Z,14.70
2022-08-18T08:18:43.432Z,14.20
2022-08-18T08:19:59.895Z,13.10
2022-08-18T08:20:45.478Z,13.10
2022-08-18T08:21:43.435Z,13.60
2022-08-18T08:22:44.407Z,12.30
2022-08-18T08:23:45.298Z,12.40
2022-08-18T08:24:44.386Z,14.30
2022-08-18T08:25:46.761Z,14.70
2022-08-18T08:26:44.372Z,13.50
2022-08-18T08:27:43.363Z,13.60
2022-08-18T08:28:43.386Z,14.50
2022-08-18T08:29:43.349Z,14.20
2022-08-18T08:30:43.373Z,13.40
2022-08-18T08:31:43.372Z,15.20
2022-08-18T08:32:43.332Z,17.10
2022-08-18T08:33:43.318Z,18.10
2022-08-18T08:34:43.316Z,14.20
2022-08-18T08:35:47.268Z,16.90
2022-08-18T08:36:44.297Z,17.00
2022-08-18T08:37:43.296Z,19.80
2022-08-18T08:38:44.963Z,17.70
2022-08-18T08:39:44.322Z,16.50
2022-08-18T08:40:43.303Z,16.90
2022-08-18T08:41:43.281Z,15.20
2022-08-18T08:42:43.251Z,15.30
2022-08-18T08:43:43.234Z,16.30
2022-08-18T08:44:58.445Z,16.40
2022-08-18T08:45:45.252Z,15.40
2022-08-18T08:46:43.217Z,14.90
2022-08-18T08:47:43.200Z,14.40
2022-08-18T08:48:43.193Z,14.70
2022-08-18T08:49:43.177Z,14.30
2022-08-18T08:50:43.209Z,15.00
2022-08-18T08:51:43.165Z,14.40
2022-08-18T08:52:43.165Z,16.00
2022-08-18T08:53:43.176Z,15.80
2022-08-18T08:54:43.153Z,13.60
2022-08-18T08:55:43.140Z,13.50
2022-08-18T08:56:43.162Z,14.40
2022-08-18T08:57:43.118Z,16.80
2022-08-18T08:58:43.111Z,17.70
2022-08-18T08:59:43.104Z,16.70
2022-08-18T09:00:43.111Z,17.40
2022-08-18T09:01:43.338Z,17.20
2022-08-18T09:02:48.167Z,16.40
2022-08-18T09:03:45.077Z,16.80
2022-08-18T09:05:07.324Z,15.80
2022-08-18T09:05:44.057Z,14.30
2022-08-18T09:06:43.088Z,14.70
2022-08-18T09:07:43.042Z,15.80
2022-08-18T09:08:43.038Z,17.30
2022-08-18T09:09:43.023Z,17.80
2022-08-18T09:10:43.011Z,17.00
2022-08-18T09:11:43.041Z,17.50
2022-08-18T09:12:42.986Z,17.50
2022-08-18T09:13:43.992Z,17.70
2022-08-18T09:14:42.988Z,18.40
2022-08-18T09:15:42.976Z,19.00
2022-08-18T09:16:43.031Z,18.10
2022-08-18T09:17:42.964Z,16.20
2022-08-18T09:18:42.949Z,14.50
2022-08-18T09:19:42.940Z,12.60
2022-08-18T09:20:47.199Z,10.60
2022-08-18T09:21:44.974Z,10.50
2022-08-18T09:22:42.913Z,11.30
2022-08-18T09:23:42.906Z,10.50
2022-08-18T09:24:42.937Z,11.10
2022-08-18T09:25:42.897Z,11.00
2022-08-18T09:26:42.927Z,11.30
2022-08-18T09:28:09.358Z,12.10
2022-08-18T09:28:44.860Z,14.90
2022-08-18T09:29:44.198Z,17.00
2022-08-18T09:30:42.858Z,16.30
2022-08-18T09:31:42.927Z,16.80
2022-08-18T09:32:49.174Z,18.10
2022-08-18T09:33:43.841Z,19.80
2022-08-18T09:34:45.511Z,18.90
2022-08-18T09:35:42.842Z,19.40
2022-08-18T09:36:42.801Z,20.90
2022-08-18T09:37:42.836Z,20.80
2022-08-18T09:38:42.790Z,21.20
2022-08-18T09:39:42.808Z,20.30
2022-08-18T09:41:44.780Z,22.30
2022-08-18T09:42:48.405Z,21.80
2022-08-18T09:43:43.769Z,23.70
2022-08-18T09:44:42.850Z,22.00
2022-08-18T09:45:42.751Z,22.50
2022-08-18T09:47:43.697Z,23.50
2022-08-18T09:50:37.346Z,24.30
2022-08-18T09:50:43.708Z,23.60
2022-08-18T09:51:42.692Z,21.70
2022-08-18T09:52:42.697Z,23.80
2022-08-18T09:53:42.712Z,23.10
2022-08-18T09:54:42.679Z,20.60
2022-08-18T09:55:52.096Z,21.70
2022-08-18T09:56:53.470Z,20.90
2022-08-18T09:57:44.036Z,22.00
2022-08-18T09:58:42.630Z,22.20
2022-08-18T09:59:42.611Z,22.00
2022-08-18T10:00:42.640Z,21.30
2022-08-18T10:01:42.684Z,22.10
2022-08-18T10:02:47.613Z,23.20
2022-08-18T10:03:43.600Z,21.90
2022-08-18T10:04:42.573Z,21.50
2022-08-18T10:05:42.594Z,23.70
2022-08-18T10:06:42.978Z,21.90
2022-08-18T10:07:44.152Z,28.30
2022-08-18T10:08:42.755Z,28.40
2022-08-18T10:09:44.052Z,27.50
2022-08-18T10:11:00.755Z,28.10
2022-08-18T10:11:43.542Z,29.00
2022-08-18T10:12:42.531Z,27.40
2022-08-18T10:13:48.963Z,29.10
2022-08-18T10:14:45.113Z,30.10
2022-08-18T10:15:42.525Z,27.50
2022-08-18T10:17:12.953Z,28.00
2022-08-18T10:17:44.449Z,28.50
2022-08-18T10:18:42.449Z,28.00
2022-08-18T10:19:42.444Z,28.00
2022-08-18T10:20:42.630Z,25.90
2022-08-18T10:21:42.469Z,23.70
2022-08-18T10:22:42.422Z,26.30
2022-08-18T10:23:47.995Z,26.00
2022-08-18T10:24:43.415Z,26.30
2022-08-18T10:25:42.429Z,26.00
2022-08-18T10:26:42.382Z,25.60
2022-08-18T10:27:43.376Z,28.10
2022-08-18T10:28:42.373Z,27.00
2022-08-18T10:29:42.369Z,27.90
2022-08-18T10:30:49.883Z,29.20
2022-08-18T10:31:43.337Z,27.00
2022-08-18T10:32:44.372Z,27.00
2022-08-18T10:33:43.331Z,26.60
2022-08-18T10:34:51.471Z,26.20
2022-08-18T10:35:43.369Z,25.10
2022-08-18T10:36:42.303Z,25.20
2022-08-18T10:37:42.298Z,25.10
2022-08-18T10:38:46.173Z,27.00
2022-08-18T10:39:43.291Z,27.10
2022-08-18T10:40:42.282Z,27.50
2022-08-18T10:41:42.289Z,26.00
2022-08-18T10:42:42.252Z,27.60
2022-08-18T10:43:46.201Z,29.00
2022-08-18T10:44:44.251Z,29.00
2022-08-18T10:45:50.775Z,29.70
2022-08-18T10:46:46.691Z,29.50
2022-08-18T10:47:42.243Z,29.90
2022-08-18T10:48:42.201Z,29.00
2022-08-18T10:50:43.183Z,28.00
2022-08-18T10:51:58.010Z,27.60
2022-08-18T10:53:44.961Z,29.60
2022-08-18T10:54:51.025Z,29.50
2022-08-18T10:55:48.571Z,29.80
2022-08-18T10:56:43.830Z,29.30
2022-08-18T10:57:42.139Z,30.60
2022-08-18T10:58:42.152Z,29.80
2022-08-18T10:59:52.208Z,30.60
2022-08-18T11:00:43.139Z,30.90
2022-08-18T11:01:42.102Z,32.10
2022-08-18T11:02:42.109Z,30.20
2022-08-18T11:03:51.087Z,30.60
2022-08-18T11:04:44.079Z,31.30
2022-08-18T11:05:42.101Z,30.80
2022-08-18T11:06:42.064Z,30.70
2022-08-18T11:07:42.710Z,29.60
2022-08-18T11:08:42.048Z,28.40
2022-08-18T11:09:45.905Z,31.50
2022-08-18T11:10:58.078Z,29.80
2022-08-18T11:11:52.927Z,30.40
2022-08-18T11:12:43.045Z,32.30
2022-08-18T11:13:42.007Z,31.30
2022-08-18T11:14:41.995Z,32.90
2022-08-18T11:15:41.993Z,34.40
2022-08-18T11:16:42.017Z,31.60
2022-08-18T11:17:42.891Z,36.90
2022-08-18T11:18:43.123Z,37.60
2022-08-18T11:19:42.412Z,37.50
2022-08-18T11:20:43.447Z,36.10
2022-08-18T11:21:43.348Z,34.10
2022-08-18T11:22:41.936Z,35.10
2022-08-18T11:23:42.922Z,34.50
2022-08-18T11:24:41.910Z,36.40
2022-08-18T11:25:41.940Z,35.40
2022-08-18T11:26:41.897Z,36.30
2022-08-18T11:27:41.890Z,37.30
2022-08-18T11:28:45.104Z,38.40
2022-08-18T11:29:41.907Z,36.50
2022-08-18T11:30:41.899Z,38.40
2022-08-18T11:31:41.859Z,36.40
2022-08-18T11:32:51.362Z,37.90
2022-08-18T11:33:42.853Z,38.30
2022-08-18T11:34:45.846Z,36.90
2022-08-18T11:35:42.851Z,39.70
2022-08-18T11:36:47.918Z,38.70
2022-08-18T11:37:49.578Z,38.40
2022-08-18T11:38:42.796Z,38.80
2022-08-18T11:39:41.845Z,37.70
2022-08-18T11:41:48.638Z,38.70
2022-08-18T11:42:42.769Z,36.80
2022-08-18T11:44:42.756Z,38.50
2022-08-18T11:45:41.772Z,35.60
2022-08-18T11:46:42.913Z,37.60
2022-08-18T11:47:41.720Z,39.20
2022-08-18T11:48:51.444Z,36.80
2022-08-18T11:49:42.728Z,36.90
2022-08-18T11:50:41.780Z,37.70
2022-08-18T11:51:42.689Z,36.80
2022-08-18T11:52:41.682Z,38.20
2022-08-18T11:53:41.674Z,37.40
2022-08-18T11:54:50.859Z,38.80
2022-08-18T11:55:48.259Z,39.60
2022-08-18T11:56:42.648Z,38.60
2022-08-18T11:57:46.539Z,37.80
2022-08-18T11:58:42.632Z,39.20
2022-08-18T12:00:44.068Z,39.00
2022-08-18T12:01:42.499Z,37.70
2022-08-18T12:02:42.604Z,37.40
2022-08-18T12:03:41.718Z,38.20
2022-08-18T12:04:41.579Z,38.60
2022-08-18T12:05:45.769Z,38.20
2022-08-18T12:06:43.140Z,37.50
2022-08-18T12:07:41.557Z,40.00
2022-08-18T12:08:56.527Z,38.80
2022-08-18T12:10:16.063Z,38.30
2022-08-18T12:10:43.570Z,40.50
2022-08-18T12:11:42.748Z,38.10
2022-08-18T12:12:41.524Z,37.60
2022-08-18T12:13:41.536Z,38.20
2022-08-18T12:14:41.518Z,36.70
2022-08-18T12:15:43.736Z,38.20
2022-08-18T12:16:41.495Z,38.30
2022-08-18T12:17:42.489Z,38.10
2022-08-18T12:18:42.496Z,38.60
2022-08-18T12:19:41.466Z,39.60
2022-08-18T12:20:41.494Z,39.10
2022-08-18T12:21:41.498Z,39.30
2022-08-18T12:22:41.453Z,39.80
2022-08-18T12:23:49.614Z,38.70
2022-08-18T12:24:42.484Z,38.20
2022-08-18T12:25:41.458Z,39.00
2022-08-18T12:26:47.331Z,38.80
2022-08-18T12:27:42.413Z,36.50
2022-08-18T12:28:41.413Z,39.90
2022-08-18T12:29:43.590Z,40.30
2022-08-18T12:30:42.154Z,39.90
2022-08-18T12:31:47.570Z,39.50
2022-08-18T12:32:49.481Z,37.40
2022-08-18T12:33:48.099Z,38.20
2022-08-18T12:34:42.339Z,39.30
2022-08-18T12:35:42.336Z,39.20
2022-08-18T12:36:42.385Z,38.40
2022-08-18T12:38:43.307Z,39.40
2022-08-18T12:39:41.325Z,37.90
2022-08-18T12:40:41.287Z,37.70
2022-08-18T12:41:41.322Z,37.40
2022-08-18T12:42:41.271Z,38.60
2022-08-18T12:43:41.299Z,40.00
2022-08-18T12:44:41.255Z,37.30
2022-08-18T12:45:41.374Z,37.10
2022-08-18T12:46:42.227Z,38.60
2022-08-18T12:47:41.228Z,39.00
2022-08-18T12:48:41.225Z,39.50
2022-08-18T12:49:41.228Z,38.10
2022-08-18T12:50:54.045Z,39.50
2022-08-18T12:51:43.228Z,38.20
2022-08-18T12:52:41.202Z,37.90
2022-08-18T12:53:58.436Z,38.10
2022-08-18T12:54:55.081Z,38.10
2022-08-18T12:55:43.686Z,39.70
2022-08-18T12:56:41.190Z,39.90
2022-08-18T12:57:53.511Z,39.00
2022-08-18T12:58:42.149Z,38.40
2022-08-18T12:59:41.136Z,39.60
2022-08-18T13:00:41.315Z,39.30
2022-08-18T13:01:41.185Z,40.40
2022-08-18T13:02:42.180Z,37.80
2022-08-18T13:04:42.134Z,38.20
2022-08-18T13:05:41.088Z,38.00
2022-08-18T13:06:41.151Z,40.50
2022-08-18T13:07:42.072Z,40.00
2022-08-18T13:08:49.960Z,39.80
2022-08-18T13:09:53.014Z,41.40
2022-08-18T13:10:45.491Z,41.80
2022-08-18T13:11:41.124Z,40.90
2022-08-18T13:12:41.036Z,40.40
2022-08-18T13:14:41.029Z,41.40
2022-08-18T13:15:44.358Z,38.80
2022-08-18T13:16:53.756Z,40.00
2022-08-18T13:17:42.083Z,41.20
2022-08-18T13:18:40.994Z,40.00
2022-08-18T13:19:40.988Z,41.50